createdAt,value
2024-03-03T00:00:07.846Z,9.64
2024-03-03T00:02:35.467Z,9.67
2024-03-03T00:05:03.174Z,9.67
2024-03-03T00:07:31.042Z,9.66
2024-03-03T00:09:58.721Z,9.65
2024-03-03T00:12:26.258Z,9.62
2024-03-03T00:14:53.930Z,9.62
2024-03-03T00:17:21.482Z,9.62
2024-03-03T00:19:49.145Z,9.62
2024-03-03T00:22:16.877Z,9.63
2024-03-03T00:24:44.590Z,9.61
2024-03-03T00:27:12.230Z,9.59
2024-03-03T00:29:39.795Z,9.59
2024-03-03T00:32:07.355Z,9.60
2024-03-03T00:34:34.920Z,9.62
2024-03-03T00:37:02.727Z,9.63
2024-03-03T00:39:30.333Z,9.63
2024-03-03T00:41:58.000Z,9.63
2024-03-03T00:44:25.566Z,9.62
2024-03-03T00:46:53.317Z,9.60
2024-03-03T00:49:21.349Z,9.59
2024-03-03T00:51:49.162Z,9.57
2024-03-03T00:54:16.710Z,9.54
2024-03-03T00:56:44.382Z,9.50
2024-03-03T00:59:11.927Z,9.45
2024-03-03T01:01:39.592Z,9.39
2024-03-03T01:04:07.206Z,9.35
2024-03-03T01:06:34.929Z,9.32
2024-03-03T01:09:02.471Z,9.28
2024-03-03T01:11:30.182Z,9.25
2024-03-03T01:13:57.791Z,9.22
2024-03-03T01:16:25.359Z,9.22
2024-03-03T01:18:53.032Z,9.23
2024-03-03T01:21:20.591Z,9.26
2024-03-03T01:23:48.234Z,9.29
2024-03-03T01:26:15.789Z,9.32
2024-03-03T01:28:43.759Z,9.34
2024-03-03T01:31:11.397Z,9.36
2024-03-03T01:33:39.216Z,9.37
2024-03-03T01:36:06.861Z,9.38
2024-03-03T01:38:34.404Z,9.39
2024-03-03T01:41:02.075Z,9.38
2024-03-03T01:43:29.629Z,9.38
2024-03-03T01:45:57.316Z,9.37
2024-03-03T01:48:24.963Z,9.35
2024-03-03T01:50:52.933Z,9.34
2024-03-03T01:53:20.477Z,9.33
2024-03-03T01:55:48.041Z,9.32
2024-03-03T01:58:15.670Z,9.31
2024-03-03T02:00:43.497Z,9.30
2024-03-03T02:03:11.141Z,9.29
2024-03-03T02:05:38.813Z,9.26
2024-03-03T02:08:06.349Z,9.24
2024-03-03T02:10:34.014Z,9.19
2024-03-03T02:13:02.038Z,9.17
2024-03-03T02:15:29.740Z,9.17
2024-03-03T02:17:57.359Z,9.16
2024-03-03T02:20:25.592Z,9.15
2024-03-03T02:22:53.238Z,9.12
2024-03-03T02:25:20.990Z,9.10
2024-03-03T02:27:48.749Z,9.10
2024-03-03T02:30:16.421Z,9.10
2024-03-03T02:32:44.127Z,9.11
2024-03-03T02:35:12.048Z,9.08
2024-03-03T02:37:39.611Z,9.01
2024-03-03T02:40:07.239Z,8.95
2024-03-03T02:42:36.725Z,8.93
2024-03-03T02:45:04.848Z,8.94
2024-03-03T02:47:32.533Z,8.94
2024-03-03T02:50:00.229Z,8.95
2024-03-03T02:52:27.996Z,8.97
2024-03-03T02:54:55.811Z,8.98
2024-03-03T02:57:23.486Z,8.99
2024-03-03T02:59:51.014Z,9.01
2024-03-03T03:02:18.681Z,9.02
2024-03-03T03:04:46.235Z,9.02
2024-03-03T03:07:13.962Z,9.01
2024-03-03T03:09:41.720Z,8.98
2024-03-03T03:12:09.435Z,8.95
2024-03-03T03:14:37.302Z,8.92
2024-03-03T03:17:04.958Z,8.90
2024-03-03T03:19:32.518Z,8.86
2024-03-03T03:22:00.259Z,8.83
2024-03-03T03:24:27.987Z,8.76
2024-03-03T03:26:55.708Z,8.73
2024-03-03T03:29:23.263Z,8.69
2024-03-03T03:31:50.871Z,8.65
2024-03-03T03:34:18.564Z,8.61
2024-03-03T03:36:46.686Z,8.57
2024-03-03T03:39:14.450Z,8.52
2024-03-03T03:41:42.083Z,8.48
2024-03-03T03:44:09.752Z,8.46
2024-03-03T03:46:37.299Z,8.43
2024-03-03T03:49:04.926Z,8.42
2024-03-03T03:51:32.625Z,8.40
2024-03-03T03:54:00.701Z,8.38
2024-03-03T03:56:28.256Z,8.33
2024-03-03T03:58:55.814Z,8.20
2024-03-03T04:01:23.476Z,8.03
2024-03-03T04:03:51.280Z,7.90
2024-03-03T04:06:18.918Z,7.76
2024-03-03T04:08:46.565Z,7.65
2024-03-03T04:11:14.252Z,7.53
2024-03-03T04:13:41.879Z,7.39
2024-03-03T04:16:09.880Z,7.27
2024-03-03T04:18:37.422Z,7.20
2024-03-03T04:21:05.095Z,7.16
2024-03-03T04:23:32.663Z,7.12
2024-03-03T04:26:00.294Z,7.09
2024-03-03T04:28:27.698Z,7.06
2024-03-03T04:30:55.254Z,7.05
2024-03-03T04:33:22.865Z,7.01
2024-03-03T04:35:50.523Z,6.96
2024-03-03T04:38:18.187Z,6.95
2024-03-03T04:40:45.860Z,6.96
2024-03-03T04:43:13.484Z,6.97
2024-03-03T04:45:41.295Z,6.94
2024-03-03T04:48:08.877Z,6.87
2024-03-03T04:50:36.604Z,6.78
2024-03-03T04:53:04.177Z,6.71
2024-03-03T04:55:31.820Z,6.63
2024-03-03T04:57:59.486Z,6.52
2024-03-03T05:00:27.159Z,6.39
2024-03-03T05:02:54.701Z,6.31
2024-03-03T05:05:22.348Z,6.29
2024-03-03T05:07:50.031Z,6.28
2024-03-03T05:10:17.722Z,6.29
2024-03-03T05:12:45.392Z,6.30
2024-03-03T05:15:13.013Z,6.31
2024-03-03T05:17:40.697Z,6.34
2024-03-03T05:20:08.565Z,6.38
2024-03-03T05:22:36.191Z,6.42
2024-03-03T05:25:03.795Z,6.44
2024-03-03T05:27:31.627Z,6.46
2024-03-03T05:29:59.283Z,6.48
2024-03-03T05:32:26.874Z,6.51
2024-03-03T05:34:54.512Z,6.57
2024-03-03T05:37:22.342Z,6.66
2024-03-03T05:39:50.348Z,6.78
2024-03-03T05:42:18.005Z,6.92
2024-03-03T05:44:45.561Z,6.98
2024-03-03T05:47:13.130Z,7.01
2024-03-03T05:49:40.695Z,7.08
2024-03-03T05:52:08.256Z,7.14
2024-03-03T05:54:35.900Z,7.22
2024-03-03T05:57:03.555Z,7.32
2024-03-03T05:59:31.423Z,7.45
2024-03-03T06:01:59.160Z,7.64
2024-03-03T06:04:26.973Z,7.96
2024-03-03T06:06:54.738Z,8.52
2024-03-03T06:09:22.381Z,9.25
2024-03-03T06:11:49.945Z,9.73
2024-03-03T06:14:17.594Z,10.10
2024-03-03T06:16:45.168Z,10.32
2024-03-03T06:19:12.862Z,10.46
2024-03-03T06:21:41.022Z,10.51
2024-03-03T06:24:08.655Z,10.46
2024-03-03T06:26:36.234Z,10.42
2024-03-03T06:29:06.808Z,10.37
2024-03-03T06:31:34.921Z,10.21
2024-03-03T06:34:02.612Z,10.01
2024-03-03T06:36:30.127Z,9.84
2024-03-03T06:38:57.800Z,9.72
2024-03-03T06:41:25.766Z,9.64
2024-03-03T06:43:53.429Z,9.65
2024-03-03T06:46:21.044Z,9.75
2024-03-03T06:48:48.781Z,10.07
2024-03-03T06:51:16.512Z,10.65
2024-03-03T06:53:43.974Z,11.08
2024-03-03T06:56:11.527Z,11.86
2024-03-03T06:58:39.090Z,13.02
2024-03-03T07:01:06.848Z,14.00
2024-03-03T07:03:34.922Z,14.71
2024-03-03T07:06:02.498Z,15.31
2024-03-03T07:08:29.948Z,15.98
2024-03-03T07:10:57.518Z,16.60
2024-03-03T07:13:25.252Z,16.66
2024-03-03T07:15:52.956Z,16.73
2024-03-03T07:18:20.684Z,17.26
2024-03-03T07:20:48.342Z,17.62
2024-03-03T07:23:15.905Z,18.01
2024-03-03T07:25:43.579Z,18.33
2024-03-03T07:28:11.308Z,18.57
2024-03-03T07:30:39.086Z,18.60
2024-03-03T07:33:06.809Z,18.96
2024-03-03T07:35:34.409Z,19.42
2024-03-03T07:38:02.075Z,19.60
2024-03-03T07:40:29.724Z,19.62
2024-03-03T07:42:57.428Z,19.85
2024-03-03T07:45:25.060Z,20.25
2024-03-03T07:47:52.724Z,20.70
2024-03-03T07:50:20.281Z,21.14
2024-03-03T07:52:47.937Z,21.51
2024-03-03T07:55:15.548Z,21.91
2024-03-03T07:57:43.321Z,22.18
2024-03-03T08:00:11.023Z,22.30
2024-03-03T08:02:38.586Z,22.49
2024-03-03T08:05:06.152Z,22.58
2024-03-03T08:07:33.697Z,22.70
2024-03-03T08:10:01.399Z,22.93
2024-03-03T08:12:29.038Z,23.00
2024-03-03T08:14:56.686Z,23.01
2024-03-03T08:17:24.241Z,23.00
2024-03-03T08:19:51.803Z,22.62
2024-03-03T08:22:19.506Z,22.18
2024-03-03T08:24:47.327Z,21.89
2024-03-03T08:27:15.011Z,21.50
2024-03-03T08:29:42.972Z,21.02
2024-03-03T08:32:10.521Z,20.54
2024-03-03T08:34:38.187Z,20.03
2024-03-03T08:37:05.779Z,19.41
2024-03-03T08:39:33.530Z,18.73
2024-03-03T08:42:01.162Z,18.10
2024-03-03T08:44:28.741Z,17.61
2024-03-03T08:46:56.398Z,17.14
2024-03-03T08:49:23.972Z,16.83
2024-03-03T08:51:51.988Z,16.55
2024-03-03T08:54:19.680Z,16.28
2024-03-03T08:56:47.337Z,16.01
2024-03-03T08:59:14.913Z,15.78
2024-03-03T09:01:42.704Z,15.61
2024-03-03T09:04:13.419Z,15.50
2024-03-03T09:06:41.701Z,15.41
2024-03-03T09:09:09.337Z,15.36
2024-03-03T09:11:37.336Z,15.30
2024-03-03T09:14:05.073Z,15.25
2024-03-03T09:16:32.667Z,15.27
2024-03-03T09:19:00.638Z,15.34
2024-03-03T09:21:28.362Z,15.45
2024-03-03T09:23:56.032Z,15.53
2024-03-03T09:26:23.676Z,15.56
2024-03-03T09:28:51.661Z,15.57
2024-03-03T09:31:19.265Z,15.60
2024-03-03T09:33:47.493Z,15.60
2024-03-03T09:36:15.124Z,15.62
2024-03-03T09:38:42.909Z,15.66
2024-03-03T09:41:10.471Z,15.64
2024-03-03T09:43:38.129Z,15.69
2024-03-03T09:46:07.208Z,15.77
2024-03-03T09:48:35.805Z,15.85
2024-03-03T09:51:03.463Z,15.91
2024-03-03T09:53:31.121Z,15.97
2024-03-03T09:55:58.997Z,16.00
2024-03-03T09:58:26.703Z,16.09
2024-03-03T10:00:54.493Z,16.09
2024-03-03T10:03:22.182Z,16.04
2024-03-03T10:05:49.745Z,15.99
2024-03-03T10:08:17.303Z,15.99
2024-03-03T10:10:47.707Z,16.01
2024-03-03T10:13:15.864Z,16.06
2024-03-03T10:15:43.576Z,16.07
2024-03-03T10:18:11.132Z,16.17
2024-03-03T10:20:38.795Z,16.27
2024-03-03T10:23:06.468Z,16.39
2024-03-03T10:25:34.158Z,16.46
2024-03-03T10:28:02.016Z,16.48
2024-03-03T10:30:29.633Z,16.46
2024-03-03T10:32:57.246Z,16.40
2024-03-03T10:35:25.246Z,16.33
2024-03-03T10:37:52.945Z,16.24
2024-03-03T10:40:20.657Z,16.21
2024-03-03T10:42:48.468Z,16.19
2024-03-03T10:45:16.117Z,16.13
2024-03-03T10:47:43.834Z,15.97
2024-03-03T10:50:11.553Z,15.95
2024-03-03T10:52:39.200Z,16.02
2024-03-03T10:55:06.799Z,16.07
2024-03-03T10:57:34.539Z,16.04
2024-03-03T11:00:02.171Z,16.05
2024-03-03T11:02:29.857Z,15.99
2024-03-03T11:04:57.405Z,15.90
2024-03-03T11:07:24.986Z,15.82
2024-03-03T11:09:52.650Z,15.88
2024-03-03T11:12:20.290Z,16.04
2024-03-03T11:14:47.843Z,16.03
2024-03-03T11:17:15.410Z,15.98
2024-03-03T11:19:43.370Z,15.99
2024-03-03T11:22:10.969Z,16.08
2024-03-03T11:24:38.591Z,16.09
2024-03-03T11:27:06.310Z,16.07
2024-03-03T11:29:33.964Z,16.03
2024-03-03T11:32:01.679Z,16.03
2024-03-03T11:34:29.379Z,16.06
2024-03-03T11:36:57.032Z,16.03
2024-03-03T11:39:24.870Z,15.95
2024-03-03T11:41:52.424Z,15.93
2024-03-03T11:44:19.986Z,15.90
2024-03-03T11:46:47.548Z,15.89
2024-03-03T11:49:15.017Z,15.87
2024-03-03T11:51:42.862Z,15.85
2024-03-03T11:54:10.539Z,15.85
2024-03-03T11:56:38.092Z,15.86
2024-03-03T11:59:06.056Z,15.86
2024-03-03T12:01:33.868Z,15.83
2024-03-03T12:04:01.830Z,15.82
2024-03-03T12:06:29.799Z,15.84
2024-03-03T12:08:57.516Z,15.90
2024-03-03T12:11:25.107Z,15.94
2024-03-03T12:13:52.857Z,15.96
2024-03-03T12:16:20.443Z,15.98
2024-03-03T12:18:48.307Z,16.04
2024-03-03T12:21:16.232Z,16.08
2024-03-03T12:23:43.904Z,16.09
2024-03-03T12:26:11.570Z,16.09
2024-03-03T12:28:39.024Z,16.12
2024-03-03T12:31:06.680Z,16.10
2024-03-03T12:33:34.235Z,16.07
2024-03-03T12:36:01.808Z,16.11
2024-03-03T12:38:29.350Z,16.22
2024-03-03T12:40:57.011Z,16.25
2024-03-03T12:43:24.630Z,16.21
2024-03-03T12:45:52.763Z,16.15
2024-03-03T12:48:20.406Z,16.12
2024-03-03T12:50:48.072Z,16.06
2024-03-03T12:53:22.900Z,16.03
2024-03-03T12:55:55.602Z,16.06
2024-03-03T12:58:23.185Z,16.10
2024-03-03T13:00:51.089Z,16.12
2024-03-03T13:03:19.075Z,16.12
2024-03-03T13:05:46.641Z,16.12
2024-03-03T13:08:14.617Z,16.09
2024-03-03T13:10:42.340Z,16.09
2024-03-03T13:13:10.064Z,16.23
2024-03-03T13:15:44.236Z,16.51
2024-03-03T13:18:17.053Z,16.74
2024-03-03T13:20:44.929Z,16.86
2024-03-03T13:23:13.548Z,16.94
2024-03-03T13:25:41.647Z,16.98
2024-03-03T13:28:09.649Z,16.99
2024-03-03T13:30:37.280Z,17.09
2024-03-03T13:33:04.896Z,17.13
2024-03-03T13:35:32.507Z,17.10
2024-03-03T13:38:00.154Z,16.97
2024-03-03T13:40:27.800Z,16.80
2024-03-03T13:42:55.625Z,16.63
2024-03-03T13:45:23.348Z,16.53
2024-03-03T13:47:51.375Z,16.47
2024-03-03T13:50:18.977Z,16.42
2024-03-03T13:52:46.541Z,16.42
2024-03-03T13:55:14.132Z,16.39
2024-03-03T13:57:41.855Z,16.32
2024-03-03T14:00:09.426Z,16.24
2024-03-03T14:02:37.088Z,16.13
2024-03-03T14:05:04.642Z,16.02
2024-03-03T14:07:32.853Z,15.92
2024-03-03T14:10:00.539Z,15.85
2024-03-03T14:12:28.339Z,15.79
2024-03-03T14:14:55.992Z,15.73
2024-03-03T14:17:23.660Z,15.69
2024-03-03T14:19:51.219Z,15.67
2024-03-03T14:22:18.812Z,15.66
2024-03-03T14:24:46.448Z,15.66
2024-03-03T14:27:13.997Z,15.66
2024-03-03T14:29:41.562Z,15.65
2024-03-03T14:32:09.111Z,15.64
2024-03-03T14:34:36.785Z,15.63
2024-03-03T14:37:04.401Z,15.63
2024-03-03T14:39:32.196Z,15.63
2024-03-03T14:41:59.762Z,15.63
2024-03-03T14:44:27.425Z,15.62
2024-03-03T14:46:54.978Z,15.64
2024-03-03T14:49:23.002Z,15.67
2024-03-03T14:51:50.763Z,15.68
2024-03-03T14:54:18.396Z,15.69
2024-03-03T14:56:46.047Z,15.68
2024-03-03T14:59:13.591Z,15.66
2024-03-03T15:01:41.370Z,15.64
2024-03-03T15:04:09.027Z,15.60
2024-03-03T15:06:36.573Z,15.56
2024-03-03T15:09:04.546Z,15.50
2024-03-03T15:11:32.273Z,15.43
2024-03-03T15:14:02.244Z,15.35
2024-03-03T15:16:30.421Z,15.29
2024-03-03T15:18:58.087Z,15.24
2024-03-03T15:21:25.621Z,15.18
2024-03-03T15:23:53.296Z,15.12
2024-03-03T15:26:20.844Z,15.09
2024-03-03T15:28:48.502Z,15.04
2024-03-03T15:31:16.499Z,15.01
2024-03-03T15:33:44.134Z,14.96
2024-03-03T15:36:11.689Z,14.93
2024-03-03T15:38:39.149Z,14.89
2024-03-03T15:41:06.704Z,14.83
2024-03-03T15:43:34.307Z,14.77
2024-03-03T15:46:02.057Z,14.71
2024-03-03T15:48:29.685Z,14.63
2024-03-03T15:50:57.356Z,14.56
2024-03-03T15:53:24.903Z,14.49
2024-03-03T15:55:53.585Z,14.43
2024-03-03T15:58:22.180Z,14.36
2024-03-03T16:00:49.838Z,14.29
2024-03-03T16:03:17.494Z,14.22
2024-03-03T16:05:45.164Z,14.15
2024-03-03T16:08:12.721Z,14.07
2024-03-03T16:10:40.364Z,13.98
2024-03-03T16:13:08.055Z,13.90
2024-03-03T16:15:35.703Z,13.81
2024-03-03T16:18:03.724Z,13.74
2024-03-03T16:20:31.325Z,13.67
2024-03-03T16:22:59.026Z,13.62
2024-03-03T16:25:26.591Z,13.56
2024-03-03T16:27:54.341Z,13.50
2024-03-03T16:30:21.880Z,13.44
2024-03-03T16:32:49.558Z,13.37
2024-03-03T16:35:17.298Z,13.30
2024-03-03T16:37:45.059Z,13.23
2024-03-03T16:40:12.895Z,13.15
2024-03-03T16:42:40.674Z,13.11
2024-03-03T16:45:08.587Z,13.08
2024-03-03T16:47:36.442Z,13.05
2024-03-03T16:50:04.085Z,13.03
2024-03-03T16:52:31.659Z,13.00
2024-03-03T16:54:59.331Z,12.97
2024-03-03T16:57:27.281Z,12.92
2024-03-03T16:59:54.855Z,12.87
2024-03-03T17:02:22.392Z,12.83
2024-03-03T17:04:50.050Z,12.77
2024-03-03T17:07:17.675Z,12.70
2024-03-03T17:09:45.494Z,12.64
2024-03-03T17:12:13.106Z,12.59
2024-03-03T17:14:40.919Z,12.56
2024-03-03T17:17:08.475Z,12.55
2024-03-03T17:19:36.215Z,12.54
2024-03-03T17:22:03.950Z,12.49
2024-03-03T17:24:31.751Z,12.46
2024-03-03T17:26:59.307Z,12.41
2024-03-03T17:29:26.872Z,12.38
2024-03-03T17:31:54.437Z,12.36
2024-03-03T17:34:22.068Z,12.36
2024-03-03T17:36:49.872Z,12.35
2024-03-03T17:39:17.721Z,12.33
2024-03-03T17:41:45.405Z,12.29
2024-03-03T17:44:12.944Z,12.24
2024-03-03T17:46:40.604Z,12.21
2024-03-03T17:49:08.209Z,12.17
2024-03-03T17:51:35.951Z,12.12
2024-03-03T17:54:03.586Z,12.08
2024-03-03T17:56:31.256Z,12.04
2024-03-03T17:58:58.920Z,12.02
2024-03-03T18:01:26.598Z,12.02
2024-03-03T18:03:54.267Z,12.02
2024-03-03T18:06:21.901Z,12.04
2024-03-03T18:08:49.472Z,12.03
2024-03-03T18:11:17.160Z,12.03
2024-03-03T18:13:44.671Z,12.01
2024-03-03T18:16:12.393Z,12.00
2024-03-03T18:18:39.794Z,11.98
2024-03-03T18:21:07.861Z,11.93
2024-03-03T18:23:35.440Z,11.91
2024-03-03T18:26:03.190Z,11.87
2024-03-03T18:28:30.835Z,11.83
2024-03-03T18:30:58.581Z,11.80
2024-03-03T18:33:26.518Z,11.76
2024-03-03T18:35:54.038Z,11.75
2024-03-03T18:38:21.694Z,11.75
2024-03-03T18:40:49.259Z,11.75
2024-03-03T18:43:17.170Z,11.76
2024-03-03T18:45:44.793Z,11.77
2024-03-03T18:48:12.456Z,11.78
2024-03-03T18:50:41.768Z,11.78
2024-03-03T18:53:10.743Z,11.77
2024-03-03T18:55:38.438Z,11.75
2024-03-03T18:58:05.976Z,11.72
2024-03-03T19:00:33.634Z,11.68
2024-03-03T19:03:01.585Z,11.64
2024-03-03T19:05:29.160Z,11.62
2024-03-03T19:07:56.718Z,11.59
2024-03-03T19:10:24.400Z,11.57
2024-03-03T19:12:51.976Z,11.56
2024-03-03T19:15:19.689Z,11.55
2024-03-03T19:17:47.278Z,11.54
2024-03-03T19:20:14.909Z,11.52
2024-03-03T19:22:42.572Z,11.51
2024-03-03T19:25:10.577Z,11.51
2024-03-03T19:27:38.096Z,11.52
2024-03-03T19:30:05.657Z,11.49
2024-03-03T19:32:33.242Z,11.46
2024-03-03T19:35:00.878Z,11.43
2024-03-03T19:37:28.566Z,11.40
2024-03-03T19:39:56.308Z,11.38
2024-03-03T19:42:23.864Z,11.35
2024-03-03T19:44:51.830Z,11.32
2024-03-03T19:47:19.389Z,11.29
2024-03-03T19:49:47.047Z,11.29
2024-03-03T19:52:15.369Z,11.29
2024-03-03T19:54:43.302Z,11.31
2024-03-03T19:57:10.856Z,11.33
2024-03-03T19:59:38.414Z,11.35
2024-03-03T20:02:06.074Z,11.37
2024-03-03T20:04:34.009Z,11.38
2024-03-03T20:07:01.851Z,11.38
2024-03-03T20:09:29.486Z,11.35
2024-03-03T20:11:57.126Z,11.31
2024-03-03T20:14:24.686Z,11.31
2024-03-03T20:16:52.461Z,11.32
2024-03-03T20:19:20.137Z,11.34
2024-03-03T20:21:47.775Z,11.38
2024-03-03T20:24:15.331Z,11.42
2024-03-03T20:26:43.310Z,11.47
2024-03-03T20:29:13.246Z,11.48
2024-03-03T20:31:41.495Z,11.49
2024-03-03T20:34:09.363Z,11.52
2024-03-03T20:36:37.028Z,11.57
2024-03-03T20:39:04.679Z,11.60
2024-03-03T20:41:32.250Z,11.62
2024-03-03T20:43:59.908Z,11.63
2024-03-03T20:46:27.809Z,11.65
2024-03-03T20:48:55.640Z,11.67
2024-03-03T20:51:23.291Z,11.68
2024-03-03T20:53:50.652Z,11.68
2024-03-03T20:56:18.306Z,11.67
2024-03-03T20:58:45.666Z,11.66
2024-03-03T21:01:13.496Z,11.64
2024-03-03T21:03:41.290Z,11.61
2024-03-03T21:06:08.845Z,11.60
2024-03-03T21:08:36.410Z,11.56
2024-03-03T21:11:04.317Z,11.54
2024-03-03T21:13:32.196Z,11.52
2024-03-03T21:15:59.813Z,11.51
2024-03-03T21:18:27.572Z,11.51
2024-03-03T21:20:55.139Z,11.49
2024-03-03T21:23:22.826Z,11.46
2024-03-03T21:25:50.345Z,11.41
2024-03-03T21:28:18.072Z,11.37
2024-03-03T21:30:45.669Z,11.34
2024-03-03T21:33:13.236Z,11.32
2024-03-03T21:35:41.196Z,11.31
2024-03-03T21:38:08.760Z,11.29
2024-03-03T21:40:36.453Z,11.28
2024-03-03T21:43:03.989Z,11.26
2024-03-03T21:45:31.529Z,11.23
2024-03-03T21:47:59.152Z,11.21
2024-03-03T21:50:26.955Z,11.18
2024-03-03T21:52:54.527Z,11.15
2024-03-03T21:55:22.328Z,11.13
2024-03-03T21:57:49.942Z,11.10
2024-03-03T22:00:17.523Z,11.08
2024-03-03T22:02:45.115Z,11.01
2024-03-03T22:05:13.025Z,10.95
2024-03-03T22:07:40.781Z,10.91
2024-03-03T22:10:08.574Z,10.85
2024-03-03T22:12:36.330Z,10.77
2024-03-03T22:15:04.286Z,10.69
2024-03-03T22:17:31.859Z,10.60
2024-03-03T22:19:59.510Z,10.52
2024-03-03T22:22:27.123Z,10.42
2024-03-03T22:24:54.876Z,10.33
2024-03-03T22:27:22.498Z,10.26
2024-03-03T22:29:50.054Z,10.18
2024-03-03T22:32:17.721Z,10.08
2024-03-03T22:34:45.490Z,9.99
2024-03-03T22:37:13.415Z,9.89
2024-03-03T22:39:40.922Z,9.78
2024-03-03T22:42:08.566Z,9.68
2024-03-03T22:44:36.116Z,9.58
2024-03-03T22:47:03.687Z,9.46
2024-03-03T22:49:31.516Z,9.36
2024-03-03T22:51:59.520Z,9.28
2024-03-03T22:54:27.279Z,9.22
2024-03-03T22:56:55.300Z,9.16
2024-03-03T22:59:23.017Z,9.08
2024-03-03T23:01:50.744Z,9.01
2024-03-03T23:04:18.367Z,8.96
2024-03-03T23:06:46.000Z,8.92
2024-03-03T23:09:13.629Z,8.89
2024-03-03T23:11:41.364Z,8.86
2024-03-03T23:14:08.985Z,8.81
2024-03-03T23:16:36.725Z,8.75
2024-03-03T23:19:04.530Z,8.71
2024-03-03T23:21:32.071Z,8.68
2024-03-03T23:23:59.737Z,8.64
2024-03-03T23:26:27.393Z,8.61
2024-03-03T23:28:54.947Z,8.60
2024-03-03T23:31:22.553Z,8.59
2024-03-03T23:33:50.273Z,8.58
2024-03-03T23:36:17.831Z,8.54
2024-03-03T23:38:45.299Z,8.51
2024-03-03T23:41:12.839Z,8.49
2024-03-03T23:43:40.483Z,8.46
2024-03-03T23:46:08.210Z,8.38
2024-03-03T23:48:35.927Z,8.30
2024-03-03T23:51:03.501Z,8.23
2024-03-03T23:53:31.164Z,8.18
2024-03-03T23:55:58.714Z,8.16
2024-03-03T23:58:26.464Z,8.13
